Impacts TAF Board INFO
FOR SITUATIONAL AWARENESS. NOT TO BE USED FOR FLIGHT PLANNING PURPOSES.
IDs:

KPDX - Portland Intl Arpt, OR, US

Issued at 2321 UTC 23 Feb 2018
Updated at 2350 UTC 23 Feb 2018
Potential Impact None Slight Moderate High
Time<<24/12Z 24/13Z 24/14Z 24/15Z 24/16Z 24/17Z 24/18Z 24/19Z 24/20Z 24/21Z 24/22Z 24/23Z 25/00Z>>
Type PRVL PRVL PRVL PRVL PRVL PRVL PRVL PRVL PRVL PRVL PRVL PRVL
VIS >6 >6 >6 >6 >6 >6 >6 >6 >6 >6 >6 >6
CIG 15 25 25 25 25 25 35 35 35 35 35 35
Cover OVC OVC OVC OVC OVC OVC OVC OVC OVC OVC OVC OVC
FltCat MVFR MVFR MVFR MVFR MVFR MVFR VFR VFR VFR VFR VFR VFR
WX -RA -SN -SHRA -SHRA -SHRA -SHRA -SHRA -SHRA -SHRA -SHRA -SHRA -SHRA -SHRA
WDir 200 240 240 240 240 240 270 270 270 270 270 270
WSpd 12 12 12 12 12 12 13 13 13 13 13 13
WGst -- -- -- -- -- -- -- -- -- -- -- --

Raw TAF
KPDX 232321Z 2400/2424 16008KT P6SM SCT025 BKN035 OVC050
  FM240200 16009KT 5SM -SN SCT015 BKN025 OVC040
  FM240400 16010KT 1SM -SN BKN010 OVC020
  FM241000 20012KT P6SM -RASN BKN015 BKN025 OVC040
  FM241300 24012KT P6SM -SHRA SCT015 BKN025 OVC040
  FM241800 27013KT P6SM -SHRA SCT025 BKN035 OVC045


METAR Board
Radar Display
Forecast Discussion

FOR SITUATIONAL AWARENESS. NOT TO BE USED FOR FLIGHT PLANNING PURPOSES.